Time;durP1;ratioP1;P1;durP2;ratioP2;P2;SDS_P1;SDS_P2;PMS_P1;PMS_P2;Temp;Humidity;BMP_temperature;BMP_pressure;BME280_temperature;BME280_humidity;BME280_pressure;Samples;Min_cycle;Max_cycle;Signal;HPM_P1;HPM_P2
2022/04/10 00:01:18;;;;;;;4.93;3.27;;;;;;;;;;5093115;28;20177;-56
2022/04/10 00:03:44;;;;;;;4.53;3.00;;;3.30;99.90;;;;;;5092908;28;20162;-51
2022/04/10 00:06:10;;;;;;;3.83;2.87;;;3.40;99.90;;;;;;5075080;28;20192;-54
2022/04/10 00:08:36;;;;;;;5.20;2.93;;;3.40;99.90;;;;;;5093164;28;20236;-55
2022/04/10 00:11:02;;;;;;;3.77;2.97;;;;;;;;;;5074675;28;20177;-51
2022/04/10 00:13:27;;;;;;;5.03;3.50;;;3.60;99.90;;;;;;5092698;28;20178;-56
2022/04/10 00:15:53;;;;;;;4.80;2.93;;;;;;;;;;5092618;28;20197;-55
2022/04/10 00:18:19;;;;;;;7.50;3.10;;;;;;;;;;5092897;28;20174;-54
2022/04/10 00:20:45;;;;;;;4.83;3.10;;;3.60;99.90;;;;;;5092679;28;20761;-55
2022/04/10 00:23:11;;;;;;;3.77;3.27;;;3.60;99.90;;;;;;5092349;28;20237;-54
2022/04/10 00:25:37;;;;;;;3.03;2.83;;;3.60;99.90;;;;;;5092748;28;20201;-52
2022/04/10 00:28:03;;;;;;;4.10;3.27;;;3.70;99.90;;;;;;5092641;28;20178;-55
2022/04/10 00:30:28;;;;;;;3.37;2.80;;;3.80;99.90;;;;;;5093004;28;20583;-55
2022/04/10 00:32:54;;;;;;;3.50;2.97;;;;;;;;;;5092197;28;20205;-56
2022/04/10 00:35:20;;;;;;;5.47;3.07;;;;;;;;;;5092743;28;20631;-53
2022/04/10 00:37:46;;;;;;;4.97;3.10;;;3.80;99.90;;;;;;5092602;28;20694;-54
2022/04/10 00:40:11;;;;;;;6.00;3.13;;;3.90;99.90;;;;;;5083908;28;20253;-57
2022/04/10 00:42:40;;;;;;;4.43;3.30;;;3.90;99.90;;;;;;5086854;28;20431;-55
2022/04/10 00:45:07;;;;;;;4.13;3.20;;;4.00;99.90;;;;;;5092585;28;20185;-57
2022/04/10 00:47:33;;;;;;;4.93;2.80;;;3.90;99.90;;;;;;5092366;28;20174;-51
2022/04/10 00:50:00;;;;;;;3.27;2.40;;;4.00;99.90;;;;;;5092573;28;20215;-55
2022/04/10 00:52:30;;;;;;;5.33;3.07;;;3.90;99.90;;;;;;5091967;28;20688;-53
2022/04/10 00:54:56;;;;;;;3.90;2.90;;;3.50;99.90;;;;;;5092322;28;20284;-55
2022/04/10 00:57:24;;;;;;;5.60;3.13;;;3.30;99.90;;;;;;5091357;28;20217;-54
2022/04/10 00:59:49;;;;;;;4.67;3.33;;;3.30;99.90;;;;;;5092216;28;20173;-53
2022/04/10 01:02:15;;;;;;;3.33;2.97;;;;;;;;;;5091928;28;20299;-55
2022/04/10 01:04:41;;;;;;;5.07;3.10;;;3.30;99.90;;;;;;5092114;28;20170;-57
2022/04/10 01:07:07;;;;;;;5.60;3.77;;;3.40;99.90;;;;;;5092355;28;20528;-54
2022/04/10 01:09:33;;;;;;;6.27;3.27;;;3.50;99.90;;;;;;5092105;28;20195;-56
2022/04/10 01:12:00;;;;;;;6.40;3.60;;;3.60;99.90;;;;;;5092268;28;20194;-55
2022/04/10 01:14:26;;;;;;;5.17;3.23;;;3.80;99.90;;;;;;5091633;28;20201;-51
2022/04/10 01:16:53;;;;;;;3.40;2.90;;;3.80;99.90;;;;;;5092064;28;20201;-56
2022/04/10 01:19:20;;;;;;;7.00;3.30;;;3.90;99.90;;;;;;5092015;28;20170;-50
2022/04/10 01:21:47;;;;;;;4.63;3.23;;;3.80;99.90;;;;;;5091886;28;20202;-51
2022/04/10 01:24:13;;;;;;;4.50;2.90;;;3.80;99.90;;;;;;5091546;28;20200;-53
2022/04/10 01:26:40;;;;;;;5.07;2.87;;;3.70;99.90;;;;;;5091923;28;20173;-52
2022/04/10 01:29:15;;;;;;;5.27;3.30;;;3.50;99.90;;;;;;5091958;28;20692;-54
2022/04/10 01:31:45;;;;;;;4.07;3.20;;;3.30;99.90;;;;;;5091638;28;20200;-51
2022/04/10 01:34:15;;;;;;;3.50;3.20;;;3.40;99.90;;;;;;5091854;28;20201;-51
2022/04/10 01:36:42;;;;;;;4.77;3.00;;;3.60;99.90;;;;;;5091730;28;20230;-53
2022/04/10 01:39:10;;;;;;;4.03;3.13;;;3.00;99.90;;;;;;5091685;28;20584;-55
2022/04/10 01:41:36;;;;;;;4.53;3.10;;;3.00;99.90;;;;;;5091642;28;20182;-54
2022/04/10 01:44:04;;;;;;;4.03;3.17;;;2.90;99.90;;;;;;5091511;28;20174;-53
2022/04/10 01:46:31;;;;;;;4.57;3.33;;;2.60;99.90;;;;;;5091707;28;20181;-52
2022/04/10 01:48:57;;;;;;;4.10;3.00;;;;;;;;;;5091733;28;20231;-55
2022/04/10 01:51:24;;;;;;;4.73;3.17;;;;;;;;;;5091556;28;20721;-51
2022/04/10 01:53:50;;;;;;;5.03;3.20;;;2.90;99.90;;;;;;5091228;28;20192;-53
2022/04/10 01:56:16;;;;;;;3.77;3.00;;;2.80;99.90;;;;;;5091479;28;20661;-50
2022/04/10 01:58:44;;;;;;;4.67;3.23;;;3.20;99.90;;;;;;5091663;28;20700;-50
2022/04/10 02:01:12;;;;;;;5.03;2.80;;;2.80;99.90;;;;;;5091571;28;20545;-52
2022/04/10 02:03:38;;;;;;;3.00;2.67;;;2.70;99.90;;;;;;5073151;28;20269;-53
2022/04/10 02:06:05;;;;;;;3.90;2.93;;;3.40;99.90;;;;;;5091550;28;20166;-51
2022/04/10 02:08:32;;;;;;;3.17;2.87;;;2.80;99.90;;;;;;5091825;28;20178;-52
2022/04/10 02:10:58;;;;;;;5.00;2.77;;;2.90;99.90;;;;;;5095602;28;20170;-52
2022/04/10 02:13:24;;;;;;;6.97;3.33;;;3.10;99.90;;;;;;5094868;28;20280;-52
2022/04/10 02:15:50;;;;;;;3.97;3.00;;;2.90;99.90;;;;;;5095451;28;20212;-53
2022/04/10 02:18:16;;;;;;;3.87;2.93;;;3.20;99.90;;;;;;5095401;28;20165;-54
2022/04/10 02:20:42;;;;;;;3.07;2.70;;;3.90;99.90;;;;;;5095366;28;20534;-53
2022/04/10 02:23:08;;;;;;;4.63;2.83;;;;;;;;;;5094635;28;20214;-50
2022/04/10 02:25:34;;;;;;;4.53;3.10;;;3.40;99.90;;;;;;5095332;28;20177;-53
2022/04/10 02:28:00;;;;;;;4.07;3.03;;;;;;;;;;5095168;28;20550;-55
2022/04/10 02:30:26;;;;;;;3.23;2.90;;;;;;;;;;5095180;28;20177;-56
2022/04/10 02:32:52;;;;;;;5.10;3.37;;;;;;;;;;5094677;28;20194;-54
2022/04/10 02:35:18;;;;;;;4.90;3.03;;;;;;;;;;5094862;28;20228;-56
2022/04/10 02:37:45;;;;;;;4.67;2.97;;;3.50;99.90;;;;;;5095103;28;20169;-51
2022/04/10 02:40:16;;;;;;;5.47;3.40;;;3.30;99.90;;;;;;5094808;28;20176;-56
2022/04/10 02:42:42;;;;;;;7.87;3.30;;;3.30;99.90;;;;;;5094597;28;20190;-52
2022/04/10 02:45:08;;;;;;;4.20;2.83;;;3.30;99.90;;;;;;5094819;28;20181;-57
2022/04/10 02:47:34;;;;;;;5.53;3.07;;;3.20;99.90;;;;;;5094823;28;20207;-53
2022/04/10 02:50:00;;;;;;;4.43;3.20;;;3.10;99.90;;;;;;5094521;28;20173;-57
2022/04/10 02:52:26;;;;;;;4.00;2.80;;;3.10;99.90;;;;;;5094456;28;20221;-58
2022/04/10 02:54:52;;;;;;;5.87;3.33;;;3.10;99.90;;;;;;5093696;28;20235;-54
2022/04/10 02:57:18;;;;;;;5.10;3.10;;;;;;;;;;5086174;28;20178;-56
2022/04/10 02:59:44;;;;;;;4.67;2.87;;;;;;;;;;5094544;28;20174;-56
2022/04/10 03:02:10;;;;;;;3.40;2.63;;;;;;;;;;5094272;28;20194;-52
2022/04/10 03:04:36;;;;;;;4.03;2.87;;;3.10;99.90;;;;;;5094320;28;20664;-55
2022/04/10 03:07:01;;;;;;;4.53;3.00;;;;;;;;;;5094388;28;20252;-55
2022/04/10 03:09:27;;;;;;;3.60;2.80;;;;;;;;;;5094457;28;20178;-54
2022/04/10 03:11:53;;;;;;;4.63;2.73;;;;;;;;;;5094195;28;20201;-56
2022/04/10 03:14:19;;;;;;;3.77;2.80;;;3.00;99.90;;;;;;5094081;28;20280;-53
2022/04/10 03:16:45;;;;;;;4.17;2.70;;;3.10;99.90;;;;;;5094558;28;20181;-56
2022/04/10 03:19:11;;;;;;;6.47;2.90;;;;;;;;;;5076030;28;20223;-51
2022/04/10 03:21:36;;;;;;;4.60;3.00;;;2.80;99.90;;;;;;5092726;28;20197;-52
2022/04/10 03:24:03;;;;;;;5.23;3.03;;;2.90;99.90;;;;;;5094026;28;20184;-57
2022/04/10 03:26:29;;;;;;;3.53;2.67;;;3.00;99.90;;;;;;5094122;28;20180;-53
2022/04/10 03:28:55;;;;;;;5.20;3.30;;;3.00;99.90;;;;;;5093894;28;20631;-54
2022/04/10 03:31:22;;;;;;;3.73;2.97;;;3.10;99.90;;;;;;5093955;28;20188;-54
2022/04/10 03:33:48;;;;;;;5.43;2.70;;;;;;;;;;5093347;28;20265;-52
2022/04/10 03:36:14;;;;;;;4.23;3.07;;;;;;;;;;5094011;28;20244;-54
2022/04/10 03:38:40;;;;;;;5.03;2.90;;;;;;;;;;5093638;28;20277;-56
2022/04/10 03:41:06;;;;;;;5.37;3.10;;;3.30;99.90;;;;;;5073200;28;20189;-50
2022/04/10 03:43:34;;;;;;;3.23;2.63;;;;;;;;;;5073136;28;20249;-54
2022/04/10 03:46:01;;;;;;;6.30;3.10;;;3.30;99.90;;;;;;5073630;28;20179;-51
2022/04/10 03:48:27;;;;;;;5.97;3.30;;;3.20;99.90;;;;;;5073393;28;20513;-56
2022/04/10 03:50:53;;;;;;;3.93;2.80;;;3.20;99.90;;;;;;5073502;28;20170;-51
2022/04/10 03:53:19;;;;;;;4.53;2.77;;;;;;;;;;5072868;28;20198;-52
2022/04/10 03:55:45;;;;;;;3.67;2.67;;;;;;;;;;5073287;28;20198;-54
2022/04/10 03:58:11;;;;;;;4.13;2.80;;;3.50;99.90;;;;;;5073344;28;20197;-56
2022/04/10 04:00:36;;;;;;;4.30;2.93;;;;;;;;;;5073169;28;20167;-56
2022/04/10 04:03:02;;;;;;;5.37;3.43;;;3.60;99.90;;;;;;5072764;28;20546;-56
2022/04/10 04:05:28;;;;;;;3.47;2.67;;;3.80;99.90;;;;;;5073088;28;20252;-53
2022/04/10 04:07:55;;;;;;;7.30;3.17;;;3.90;99.90;;;;;;5073155;28;20257;-55
2022/04/10 04:10:20;;;;;;;5.77;3.07;;;3.80;99.90;;;;;;5072902;28;20174;-53
2022/04/10 04:12:46;;;;;;;5.33;3.20;;;;;;;;;;5072604;28;20268;-56
2022/04/10 04:15:12;;;;;;;4.30;2.97;;;4.00;99.90;;;;;;5072757;28;20190;-57
2022/04/10 04:17:38;;;;;;;3.30;2.97;;;;;;;;;;5072956;28;20864;-53
2022/04/10 04:20:06;;;;;;;3.37;3.03;;;4.20;99.90;;;;;;5054879;28;20284;-57
2022/04/10 04:22:32;;;;;;;3.53;2.90;;;4.20;99.90;;;;;;5103998;23;20223;-53
2022/04/10 04:24:58;;;;;;;5.47;3.10;;;;;;;;;;5072780;28;20179;-54
2022/04/10 04:27:23;;;;;;;4.30;3.00;;;;;;;;;;5072560;28;20240;-54
2022/04/10 04:29:49;;;;;;;4.40;3.07;;;;;;;;;;5054765;28;20265;-57
2022/04/10 04:32:15;;;;;;;4.90;3.20;;;4.00;99.90;;;;;;5071984;28;20575;-57
2022/04/10 04:34:41;;;;;;;7.53;3.03;;;;;;;;;;5072453;28;20206;-52
2022/04/10 04:37:09;;;;;;;5.40;3.13;;;;;;;;;;5072427;28;20167;-53
2022/04/10 04:39:35;;;;;;;5.90;3.50;;;3.90;99.90;;;;;;5072497;28;20174;-54
2022/04/10 04:42:00;;;;;;;3.83;3.03;;;4.10;99.90;;;;;;5072252;28;20186;-53
2022/04/10 04:44:26;;;;;;;3.30;3.00;;;;;;;;;;5072140;28;20178;-56
2022/04/10 04:46:52;;;;;;;5.23;3.50;;;;;;;;;;5072272;28;20178;-56
2022/04/10 04:49:18;;;;;;;4.07;3.17;;;;;;;;;;5072294;28;20627;-54
2022/04/10 04:51:44;;;;;;;5.20;2.90;;;;;;;;;;5072285;28;20174;-54
2022/04/10 04:54:10;;;;;;;3.80;3.10;;;;;;;;;;5071735;28;20202;-54
2022/04/10 04:56:36;;;;;;;7.87;3.23;;;3.80;99.90;;;;;;5072378;28;20228;-57
2022/04/10 04:59:02;;;;;;;4.93;3.13;;;;;;;;;;5072172;28;20202;-54
2022/04/10 05:01:28;;;;;;;5.20;3.27;;;;;;;;;;5072134;28;20209;-55
2022/04/10 05:03:53;;;;;;;4.07;3.30;;;;;;;;;;5071500;28;20191;-56
2022/04/10 05:06:20;;;;;;;3.80;3.03;;;;;;;;;;5072122;28;20171;-53
2022/04/10 05:08:48;;;;;;;3.57;3.07;;;3.60;99.90;;;;;;5071877;28;20543;-52
2022/04/10 05:11:14;;;;;;;5.40;3.20;;;4.00;99.90;;;;;;5072062;28;20224;-55
2022/04/10 05:13:41;;;;;;;3.60;2.67;;;4.10;99.90;;;;;;5071297;28;20186;-57
2022/04/10 05:16:07;;;;;;;3.27;2.90;;;4.80;99.90;;;;;;5071915;28;20174;-55
2022/04/10 05:18:33;;;;;;;4.47;3.37;;;4.30;99.90;;;;;;5071774;28;20177;-55
2022/04/10 05:20:59;;;;;;;3.80;3.20;;;4.80;99.90;;;;;;5071979;28;20605;-54
2022/04/10 05:23:25;;;;;;;3.13;2.80;;;;;;;;;;5071356;28;20343;-56
2022/04/10 05:25:51;;;;;;;6.33;3.77;;;4.40;99.90;;;;;;5071769;28;20178;-52
2022/04/10 05:28:16;;;;;;;3.23;2.93;;;4.30;99.90;;;;;;5071814;28;20178;-52
2022/04/10 05:30:43;;;;;;;6.17;3.53;;;4.40;99.90;;;;;;5071706;28;20261;-56
2022/04/10 05:33:09;;;;;;;4.70;3.20;;;4.20;99.90;;;;;;5071427;28;20202;-56
2022/04/10 05:35:34;;;;;;;5.40;3.17;;;4.30;99.90;;;;;;5071633;28;20198;-56
2022/04/10 05:38:00;;;;;;;4.33;3.10;;;4.30;99.90;;;;;;5053781;28;20193;-57
2022/04/10 05:40:26;;;;;;;5.10;3.23;;;;;;;;;;5071594;28;20253;-55
2022/04/10 05:42:52;;;;;;;5.10;3.40;;;;;;;;;;5071333;28;20212;-58
2022/04/10 05:45:18;;;;;;;3.70;3.17;;;4.40;99.90;;;;;;5074955;28;20296;-54
2022/04/10 05:47:44;;;;;;;6.10;3.33;;;4.40;99.90;;;;;;5076071;28;20182;-54
2022/04/10 05:50:10;;;;;;;6.30;3.40;;;4.50;99.90;;;;;;5075789;28;20585;-53
2022/04/10 05:52:37;;;;;;;3.70;3.20;;;4.20;99.90;;;;;;5057474;28;20194;-53
2022/04/10 05:55:03;;;;;;;5.00;3.33;;;4.70;99.90;;;;;;5075669;28;20194;-55
2022/04/10 05:57:29;;;;;;;4.40;3.03;;;4.80;99.90;;;;;;5075484;28;20178;-54
2022/04/10 05:59:54;;;;;;;3.33;2.80;;;4.80;99.90;;;;;;5075578;28;20177;-56
2022/04/10 06:02:20;;;;;;;4.03;3.13;;;5.30;99.90;;;;;;5075025;28;20197;-54
2022/04/10 06:04:46;;;;;;;4.50;3.43;;;;;;;;;;5075527;28;20178;-55
2022/04/10 06:07:12;;;;;;;6.10;3.63;;;;;;;;;;5075237;28;20179;-56
2022/04/10 06:09:37;;;;;;;4.63;3.10;;;5.00;99.90;;;;;;5075411;28;20185;-54
2022/04/10 06:12:03;;;;;;;3.00;2.70;;;4.90;99.90;;;;;;5074847;28;20263;-57
2022/04/10 06:14:28;;;;;;;4.10;3.00;;;5.50;99.90;;;;;;5074894;28;20205;-54
2022/04/10 06:16:54;;;;;;;6.10;3.63;;;;;;;;;;5075214;28;20184;-54
2022/04/10 06:19:20;;;;;;;4.57;3.70;;;;;;;;;;5075071;28;20171;-57
2022/04/10 06:21:46;;;;;;;5.00;3.07;;;;;;;;;;5075156;28;20285;-58
2022/04/10 06:24:12;;;;;;;6.13;3.40;;;5.10;99.90;;;;;;5074689;28;20210;-57
2022/04/10 06:26:38;;;;;;;3.50;3.20;;;;;;;;;;5075277;28;20261;-58
2022/04/10 06:29:03;;;;;;;4.47;3.50;;;4.90;99.90;;;;;;5075042;28;20178;-58
2022/04/10 06:31:29;;;;;;;5.00;3.50;;;;;;;;;;5057089;28;20171;-58
2022/04/10 06:33:56;;;;;;;5.20;3.70;;;;;;;;;;5074329;28;20190;-54
2022/04/10 06:36:23;;;;;;;5.70;3.60;;;4.40;99.90;;;;;;5074903;28;20680;-55
2022/04/10 06:38:52;;;;;;;5.20;3.50;;;;;;;;;;5074827;28;20219;-55
2022/04/10 06:41:18;;;;;;;4.67;3.70;;;4.80;99.90;;;;;;5074825;28;20303;-54
2022/04/10 06:43:44;;;;;;;4.83;3.60;;;;;;;;;;5074221;28;20277;-57
2022/04/10 06:46:09;;;;;;;7.03;4.13;;;4.50;99.90;;;;;;5074731;28;20616;-54
2022/04/10 06:48:35;;;;;;;4.57;3.53;;;4.20;99.90;;;;;;5074683;28;20182;-53
2022/04/10 06:51:02;;;;;;;5.93;4.07;;;4.10;99.90;;;;;;5074578;28;20215;-55
2022/04/10 06:53:28;;;;;;;3.90;3.50;;;;;;;;;;5074120;28;20573;-56
2022/04/10 06:55:54;;;;;;;5.07;3.90;;;4.00;99.90;;;;;;5074372;28;20209;-54
2022/04/10 06:58:22;;;;;;;6.43;3.87;;;4.10;99.90;;;;;;5074382;28;20178;-54
2022/04/10 07:00:48;;;;;;;6.47;4.10;;;3.80;99.90;;;;;;5056534;28;20543;-53
2022/04/10 07:03:14;;;;;;;6.57;4.07;;;3.70;99.90;;;;;;5073971;28;20205;-52
2022/04/10 07:05:40;;;;;;;6.10;4.20;;;3.70;99.90;;;;;;5074273;28;20179;-53
2022/04/10 07:08:06;;;;;;;5.47;4.03;;;3.80;99.90;;;;;;5074310;28;20175;-52
2022/04/10 07:10:32;;;;;;;7.03;4.30;;;3.70;99.90;;;;;;5074252;28;20688;-53
2022/04/10 07:12:58;;;;;;;5.77;4.00;;;;;;;;;;5073744;28;20281;-53
2022/04/10 07:15:24;;;;;;;6.17;4.33;;;;;;;;;;5074077;28;20202;-58
2022/04/10 07:17:50;;;;;;;7.60;4.73;;;;;;;;;;5074141;28;20624;-52
2022/04/10 07:20:15;;;;;;;8.27;4.80;;;3.40;99.90;;;;;;5074071;28;20171;-53
2022/04/10 07:25:25;;;;;;;6.83;4.60;;;3.50;99.90;;;;;;5073955;28;20181;-55
2022/04/10 07:27:51;;;;;;;5.90;4.70;;;3.50;99.90;;;;;;5073935;28;20635;-57
2022/04/10 07:30:16;;;;;;;6.67;4.93;;;3.70;99.90;;;;;;5073949;28;20189;-55
2022/04/10 07:32:42;;;;;;;6.23;4.70;;;3.90;99.90;;;;;;5073283;28;20199;-55
2022/04/10 07:35:08;;;;;;;7.87;5.50;;;4.20;99.90;;;;;;5073767;28;20259;-54
2022/04/10 07:37:33;;;;;;;6.00;4.93;;;3.90;99.90;;;;;;5073857;28;20205;-56
2022/04/10 07:39:59;;;;;;;6.70;4.80;;;3.80;99.90;;;;;;5073957;28;20210;-56
2022/04/10 07:42:26;;;;;;;6.43;4.77;;;3.90;99.90;;;;;;5073398;28;20214;-52
2022/04/10 07:44:55;;;;;;;7.37;4.87;;;3.90;99.90;;;;;;5073610;28;20167;-53
2022/04/10 07:47:26;;;;;;;7.10;5.23;;;4.00;99.90;;;;;;5073618;28;20644;-55
2022/04/10 07:49:53;;;;;;;6.30;4.80;;;4.20;99.90;;;;;;5073624;28;20170;-53
2022/04/10 07:52:20;;;;;;;6.67;4.63;;;4.80;99.90;;;;;;5073058;28;20201;-53
2022/04/10 07:54:46;;;;;;;6.93;4.80;;;4.50;99.90;;;;;;5073366;28;20194;-53
2022/04/10 07:57:11;;;;;;;6.40;4.83;;;4.30;99.90;;;;;;5073345;28;20532;-54
2022/04/10 07:59:37;;;;;;;5.57;4.50;;;4.80;99.90;;;;;;5073364;28;20209;-52
2022/04/10 08:02:03;;;;;;;6.33;5.00;;;4.80;99.90;;;;;;5073111;28;20162;-57
2022/04/10 08:04:29;;;;;;;7.83;5.60;;;;;;;;;;5072976;28;20174;-56
2022/04/10 08:06:54;;;;;;;7.27;5.00;;;5.40;99.90;;;;;;5072678;28;20856;-53
2022/04/10 08:09:20;;;;;;;8.83;5.23;;;5.80;99.90;;;;;;5073100;28;20206;-54
2022/04/10 08:11:46;;;;;;;6.20;4.60;;;5.90;99.90;;;;;;5073000;28;20179;-55
2022/04/10 08:14:12;;;;;;;8.13;4.80;;;;;;;;;;5072635;28;20202;-56
2022/04/10 08:16:37;;;;;;;8.37;5.00;;;5.80;99.90;;;;;;5073079;28;20181;-58
2022/04/10 08:19:03;;;;;;;5.63;4.37;;;6.00;99.90;;;;;;5072918;28;20665;-57
2022/04/10 08:21:28;;;;;;;6.07;4.77;;;6.50;99.90;;;;;;5072771;28;20163;-57
2022/04/10 08:23:54;;;;;;;5.50;4.50;;;;;;;;;;5072402;28;20311;-57
2022/04/10 08:26:20;;;;;;;4.87;4.20;;;6.60;99.90;;;;;;5073060;28;20177;-58
2022/04/10 08:28:45;;;;;;;6.30;4.10;;;6.60;99.90;;;;;;5072824;28;20170;-56
2022/04/10 08:31:11;;;;;;;5.60;4.10;;;6.50;99.90;;;;;;5072864;28;20686;-56
2022/04/10 08:33:37;;;;;;;5.13;3.83;;;;;;;;;;5072242;28;20674;-58
2022/04/10 08:36:02;;;;;;;4.30;3.70;;;6.50;99.90;;;;;;5072456;28;20320;-56
2022/04/10 08:38:29;;;;;;;4.63;3.80;;;6.20;99.90;;;;;;5072524;28;20220;-57
2022/04/10 08:41:01;;;;;;;6.13;3.97;;;5.90;99.90;;;;;;5072557;28;20253;-58
2022/04/10 08:43:27;;;;;;;5.77;4.10;;;5.90;99.90;;;;;;5072438;28;20639;-58
2022/04/10 08:45:57;;;;;;;4.80;3.60;;;6.10;99.90;;;;;;5072467;28;20185;-56
2022/04/10 08:48:26;;;;;;;5.27;3.60;;;6.10;99.90;;;;;;5072382;28;20547;-55
2022/04/10 08:50:56;;;;;;;5.83;3.27;;;6.30;99.90;;;;;;5072197;28;20179;-57
2022/04/10 08:53:24;;;;;;;6.00;3.70;;;6.20;99.90;;;;;;5071971;28;20232;-56
2022/04/10 08:55:50;;;;;;;4.07;3.50;;;6.50;99.90;;;;;;5072203;28;20224;-53
2022/04/10 08:58:15;;;;;;;5.83;3.40;;;6.60;99.90;;;;;;5072218;28;20628;-53
2022/04/10 09:00:43;;;;;;;6.63;3.60;;;6.30;99.90;;;;;;5072252;28;20206;-56
2022/04/10 09:03:08;;;;;;;5.40;3.80;;;;;;;;;;5071744;28;20262;-58
2022/04/10 09:05:34;;;;;;;5.73;3.33;;;7.00;99.90;;;;;;5072118;28;20707;-57
2022/04/10 09:08:08;;;;;;;3.93;3.20;;;7.30;99.90;;;;;;5072249;28;20631;-52
2022/04/10 09:10:53;;;;;;;4.00;2.90;;;7.10;99.90;;;;;;5072063;28;20253;-54
2022/04/10 09:13:26;;;;;;;5.53;3.17;;;7.20;99.90;;;;;;5071652;28;20194;-53
2022/04/10 09:16:02;;;;;;;4.50;2.97;;;7.20;99.90;;;;;;5071910;28;20643;-56
2022/04/10 09:18:28;;;;;;;4.37;3.47;;;;;;;;;;5071270;28;20185;-59
2022/04/10 09:21:07;;;;;;;4.00;3.10;;;6.90;99.90;;;;;;5072159;28;20193;-56
2022/04/10 09:23:34;;;;;;;4.00;2.80;;;7.10;99.90;;;;;;5071630;28;20732;-56
2022/04/10 09:26:00;;;;;;;3.70;2.70;;;7.00;99.90;;;;;;5072047;28;20198;-52
2022/04/10 09:28:42;;;;;;;5.43;3.00;;;7.20;99.90;;;;;;5071879;28;20564;-57
2022/04/10 09:31:27;;;;;;;3.90;2.80;;;7.40;99.90;;;;;;5071739;28;20232;-52
2022/04/10 09:33:53;;;;;;;5.70;3.10;;;7.40;99.90;;;;;;5071350;28;20194;-56
2022/04/10 09:36:39;;;;;;;3.87;3.03;;;7.20;99.90;;;;;;5071813;28;20167;-54
2022/04/10 09:39:07;;;;;;;3.77;2.57;;;7.40;99.90;;;;;;5071729;28;20639;-55
2022/04/10 09:41:33;;;;;;;3.83;2.77;;;;;;;;;;5071642;28;20201;-55
2022/04/10 09:44:01;;;;;;;4.57;2.93;;;7.80;99.90;;;;;;5071368;28;20191;-55
2022/04/10 09:46:26;;;;;;;4.33;2.83;;;8.00;99.90;;;;;;5071754;28;20166;-57
2022/04/10 09:48:52;;;;;;;4.30;3.00;;;8.40;99.90;;;;;;5071574;28;20179;-53
2022/04/10 09:51:18;;;;;;;3.43;2.43;;;8.20;99.90;;;;;;5071571;28;20178;-54
2022/04/10 09:54:04;;;;;;;4.27;2.90;;;8.00;99.90;;;;;;5071254;28;20229;-53
2022/04/10 09:56:30;;;;;;;4.10;2.50;;;;;;;;;;5071616;28;20170;-56
2022/04/10 09:58:58;;;;;;;3.30;2.63;;;7.70;99.90;;;;;;5071697;28;20530;-56
2022/04/10 10:01:27;;;;;;;3.43;2.53;;;7.80;99.90;;;;;;5071578;28;20686;-55
2022/04/10 10:03:55;;;;;;;4.90;2.80;;;7.40;99.90;;;;;;5071144;28;20193;-54
2022/04/10 10:06:21;;;;;;;3.50;2.50;;;;;;;;;;5071592;28;20158;-53
2022/04/10 10:08:47;;;;;;;5.10;2.40;;;;;;;;;;5071530;28;20178;-57
2022/04/10 10:11:13;;;;;;;4.33;2.43;;;7.30;99.90;;;;;;5071493;28;20521;-56
2022/04/10 10:13:39;;;;;;;2.60;2.00;;;;;;;;;;5071088;28;20220;-56
2022/04/10 10:16:05;;;;;;;4.27;2.17;;;;;;;;;;5071280;28;20194;-54
2022/04/10 10:18:31;;;;;;;2.63;2.03;;;8.00;99.90;;;;;;5071295;28;20681;-52
2022/04/10 10:20:57;;;;;;;2.90;2.03;;;8.10;99.90;;;;;;5071420;28;20258;-53
2022/04/10 10:23:24;;;;;;;4.03;2.30;;;;;;;;;;5085735;22;20253;-56
2022/04/10 10:26:10;;;;;;;4.23;2.30;;;8.40;99.90;;;;;;5071265;28;20174;-55
2022/04/10 10:29:22;;;;;;;2.67;2.20;;;8.60;99.90;;;;;;5071208;28;20673;-51
2022/04/10 10:32:11;;;;;;;4.47;2.47;;;8.50;99.90;;;;;;5074941;28;20184;-52
2022/04/10 10:34:37;;;;;;;2.60;1.87;;;8.80;99.90;;;;;;5074733;28;20579;-54
2022/04/10 10:37:03;;;;;;;3.30;2.00;;;9.30;99.90;;;;;;5074936;28;20250;-52
2022/04/10 10:39:44;;;;;;;2.53;1.80;;;8.80;99.90;;;;;;5074947;28;20196;-54
2022/04/10 10:42:11;;;;;;;1.90;1.60;;;8.70;99.90;;;;;;5074621;28;20163;-50
2022/04/10 10:44:42;;;;;;;2.43;1.70;;;8.60;99.90;;;;;;5074512;28;20194;-53
2022/04/10 10:47:23;;;;;;;4.17;2.00;;;8.60;96.80;;;;;;5074639;28;20174;-50
2022/04/10 10:49:52;;;;;;;4.07;2.00;;;8.40;99.90;;;;;;5074627;28;20174;-51
2022/04/10 10:52:18;;;;;;;3.63;1.83;;;;;;;;;;5056330;28;20200;-54
2022/04/10 10:54:53;;;;;;;2.50;1.40;;;9.50;97.90;;;;;;5074737;28;20683;-52
2022/04/10 10:57:27;;;;;;;1.50;1.20;;;9.90;99.90;;;;;;5074363;28;20162;-52
2022/04/10 11:00:07;;;;;;;2.40;1.80;;;10.00;99.90;;;;;;5056531;28;20517;-53
2022/04/10 11:02:38;;;;;;;3.63;1.70;;;10.10;99.70;;;;;;5074001;28;20665;-51
2022/04/10 11:05:25;;;;;;;2.37;1.40;;;10.10;99.90;;;;;;5074448;28;20643;-50
2022/04/10 11:07:58;;;;;;;3.17;1.57;;;10.50;94.70;;;;;;5074374;28;20204;-51
2022/04/10 11:10:28;;;;;;;2.43;1.47;;;10.20;99.90;;;;;;5074309;28;20216;-50
2022/04/10 11:12:59;;;;;;;1.73;1.50;;;10.30;98.80;;;;;;5073964;28;20565;-50
2022/04/10 11:15:29;;;;;;;3.53;1.50;;;10.40;99.90;;;;;;5074294;28;20852;-51
2022/04/10 11:17:55;;;;;;;3.23;1.33;;;;;;;;;;5074264;28;20159;-50
2022/04/10 11:20:22;;;;;;;1.70;1.27;;;11.90;90.00;;;;;;5074003;28;20261;-53
2022/04/10 11:22:48;;;;;;;1.97;1.30;;;;;;;;;;5073490;28;20246;-52
2022/04/10 11:25:17;;;;;;;3.03;1.40;;;12.70;85.10;;;;;;5074108;28;20203;-53
2022/04/10 11:27:55;;;;;;;4.67;1.57;;;11.90;96.50;;;;;;5074090;28;20184;-50
2022/04/10 11:30:33;;;;;;;1.83;1.40;;;12.10;91.30;;;;;;5073835;28;20236;-51
2022/04/10 11:32:58;;;;;;;2.00;1.13;;;12.50;93.70;;;;;;5073554;28;20198;-54
2022/04/10 11:35:29;;;;;;;2.00;1.50;;;12.90;85.80;;;;;;5073713;28;20690;-50
2022/04/10 11:38:00;;;;;;;2.63;1.60;;;12.90;92.90;;;;;;5073858;28;20171;-52
2022/04/10 11:40:28;;;;;;;2.10;1.60;;;12.70;94.20;;;;;;5073776;28;20204;-53
2022/04/10 11:42:56;;;;;;;3.63;1.97;;;11.60;94.50;;;;;;5072416;28;20196;-52
2022/04/10 11:45:23;;;;;;;2.53;1.60;;;12.00;96.20;;;;;;5073643;28;20176;-50
2022/04/10 11:47:49;;;;;;;2.20;1.47;;;;;;;;;;5073611;28;20266;-52
2022/04/10 11:50:15;;;;;;;2.60;1.43;;;;;;;;;;5073792;28;20207;-50
2022/04/10 11:52:58;;;;;;;2.80;1.50;;;15.40;78.20;;;;;;5073126;28;20202;-51
2022/04/10 11:55:46;;;;;;;3.50;1.80;;;16.10;85.50;;;;;;5073429;28;20217;-52
2022/04/10 11:58:21;;;;;;;2.43;1.27;;;15.60;84.90;;;;;;5073444;28;20170;-52
2022/04/10 12:00:52;;;;;;;1.57;1.30;;;14.70;88.70;;;;;;5073664;28;20627;-53
2022/04/10 12:03:19;;;;;;;2.23;1.30;;;14.40;77.70;;;;;;5072849;28;20195;-53
2022/04/10 12:05:45;;;;;;;2.03;1.53;;;13.40;80.30;;;;;;5073284;28;20589;-51
2022/04/10 12:08:11;;;;;;;3.00;1.47;;;12.30;82.90;;;;;;5073094;28;20177;-52
2022/04/10 12:10:37;;;;;;;2.97;1.60;;;;;;;;;;5073157;28;20257;-52
2022/04/10 12:13:04;;;;;;;3.63;1.90;;;10.70;94.00;;;;;;5072542;28;20204;-50
2022/04/10 12:15:32;;;;;;;2.77;1.67;;;10.80;95.40;;;;;;5073111;28;20225;-51
2022/04/10 12:18:09;;;;;;;1.90;1.60;;;10.50;95.10;;;;;;5072954;28;20178;-54
2022/04/10 12:20:38;;;;;;;2.83;2.00;;;9.80;90.90;;;;;;5072982;28;20171;-52
2022/04/10 12:23:24;;;;;;;2.03;1.50;;;10.20;90.80;;;;;;5072365;28;20241;-50
2022/04/10 12:25:52;;;;;;;2.83;1.50;;;10.70;97.00;;;;;;5072915;28;20574;-52
2022/04/10 12:28:18;;;;;;;3.53;1.90;;;10.70;86.90;;;;;;5072840;28;20205;-54
2022/04/10 12:30:45;;;;;;;3.40;1.80;;;10.00;95.30;;;;;;5072685;28;20566;-51
2022/04/10 12:33:12;;;;;;;1.90;1.50;;;10.30;96.80;;;;;;5072357;28;20651;-54
2022/04/10 12:35:38;;;;;;;2.97;1.83;;;10.60;96.70;;;;;;5072612;28;20209;-51
2022/04/10 12:38:05;;;;;;;4.50;1.93;;;11.10;89.80;;;;;;5054672;28;20184;-52
2022/04/10 12:40:31;;;;;;;2.10;1.53;;;11.90;93.90;;;;;;5054641;28;20177;-51
2022/04/10 12:42:59;;;;;;;1.70;1.10;;;12.70;88.20;;;;;;5072184;28;20191;-52
2022/04/10 12:45:27;;;;;;;2.03;1.07;;;13.40;90.20;;;;;;5072277;28;20657;-55
2022/04/10 12:47:53;;;;;;;2.57;1.20;;;;;;;;;;5054414;28;20175;-53
2022/04/10 12:50:19;;;;;;;1.80;1.20;;;13.60;82.90;;;;;;5072120;28;20184;-53
2022/04/10 12:52:46;;;;;;;4.40;1.20;;;14.30;81.50;;;;;;5071627;28;20196;-55
2022/04/10 12:55:29;;;;;;;2.33;1.20;;;14.50;89.20;;;;;;5072103;28;20239;-50
2022/04/10 12:58:04;;;;;;;2.47;1.40;;;13.70;81.20;;;;;;5072091;28;20254;-50
2022/04/10 13:00:44;;;;;;;1.57;1.30;;;13.70;91.00;;;;;;5072109;28;20170;-52
2022/04/10 13:03:21;;;;;;;3.93;1.30;;;13.00;81.70;;;;;;5071598;28;20285;-51
2022/04/10 13:06:00;;;;;;;2.53;1.17;;;13.30;91.90;;;;;;5072073;28;20251;-50
2022/04/10 13:08:30;;;;;;;1.07;0.80;;;12.80;91.20;;;;;;5072043;28;20176;-51
2022/04/10 13:10:58;;;;;;;2.10;1.07;;;14.20;91.10;;;;;;5072092;28;20780;-51
2022/04/10 13:13:23;;;;;;;2.97;1.50;;;14.40;91.20;;;;;;5071529;28;20383;-52
2022/04/10 13:15:49;;;;;;;1.90;1.30;;;14.40;87.70;;;;;;5071899;28;20281;-52
2022/04/10 13:18:15;;;;;;;2.43;1.23;;;14.50;85.60;;;;;;5072026;28;20166;-53
2022/04/10 13:20:41;;;;;;;2.07;1.03;;;14.20;82.20;;;;;;5071972;28;20194;-54
2022/04/10 13:23:08;;;;;;;2.87;1.27;;;14.40;78.30;;;;;;5071416;28;20208;-51
2022/04/10 13:25:36;;;;;;;0.90;0.80;;;14.00;82.60;;;;;;5071941;28;20189;-52